CKR4 weather

Lundar Airport
Lundar, Manitoba, Canada

Public forecast

Using degrees Celsius for public forecast. Weather courtesy of forecast.io.

Closest aviation weather report (METAR) to Lundar Airport

Report is more than 6 hours old.

Closest report is Southport Airport, 48.8 nm (90.3 km) S. Retrieved 2020/08/07 22:00 UTC (1 day ago):

CYPG 072200Z 14013G19KT 15SM BKN013 25/21 A2973 RMK SC6 DA2876FT LAST OBS/NEXT 101100 UTC SLP067

Closest aviation forecast (TAF) to Lundar Airport

Forecast is more than 12 hours old.

Closest forecast is Southport Airport, 48.8 nm (90.3 km) S. Retrieved 2020/08/07 18:33 UTC (1 day ago):

TAF TAF CYPG 071730Z 0718/0806 12005KT P6SM FEW015 OVC250 FM071900 15012KT P6SM SCT020 BKN030 OVC220 PROB30 0720/0722 VRB15G30KT 3SM TSRA BR SCT020 OVC030CB FM080200 16005KT P6SM BKN040 BKN120 PROB30 0805/0806 VRB15G25KT 2SM TSRA BR FEW015 BKN040CB RMK NXT FCST BY 080000Z